Houston's Hourly Summary for Wednesday, July 11, 2018
Hour Temp
(f)
RH
(%)
Solar Rad.
(MJ/m2)
Rainfall
(in)
Wind
(mph)
7/11/2018 12:00 AM 79 79 0 0 0
7/11/2018 1:00 AM 77 83 0 0 0
7/11/2018 2:00 AM 76 90 0 0.01 0
7/11/2018 3:00 AM 75 92 0 0 0
7/11/2018 4:00 AM 75 93 0 0 0
7/11/2018 5:00 AM 75 93 0 0 0
7/11/2018 6:00 AM 74 94 0 0 0
7/11/2018 7:00 AM 74 95 0.03 0 0
7/11/2018 8:00 AM 75 93 0.28 0 0
7/11/2018 9:00 AM 80 73 1.08 0 0
7/11/2018 10:00 AM 83 62 1.69 0.01 0
7/11/2018 11:00 AM 86 54 2.32 0 0
7/11/2018 12:00 PM 88 48 2.71 0 0.13
7/11/2018 1:00 PM 89 46 2.9 0.04 1.57
7/11/2018 2:00 PM 90 43 2.75 0.01 1.96
7/11/2018 3:00 PM 92 40 3.04 0.01 3.08
7/11/2018 4:00 PM 93 38 2.55 0.01 2.69
7/11/2018 5:00 PM 93 38 2.24 0 2.42
7/11/2018 6:00 PM 92 39 1.62 0 3.34
7/11/2018 7:00 PM 91 45 0.99 0 2.63
7/11/2018 8:00 PM 89 47 0.34 0.01 3.95
7/11/2018 9:00 PM 86 63 0.09 0 3.23
7/11/2018 10:00 PM 84 68 0 0 1.93
7/11/2018 11:00 PM 82 73 0 0 0
Data Summary 83 66 24.63 0.10 1.12